createdAt,value
2022-08-21T00:00:56.870Z,98.700000
2022-08-21T00:05:57.873Z,98.600000
2022-08-21T00:10:58.763Z,98.500000
2022-08-21T00:15:59.776Z,98.500000
2022-08-21T00:21:00.840Z,98.400000
2022-08-21T00:26:01.895Z,98.500000
2022-08-21T00:31:02.908Z,98.583333
2022-08-21T00:36:03.834Z,98.600000
2022-08-21T00:41:20.970Z,98.600000
2022-08-21T00:46:05.728Z,98.600000
2022-08-21T00:51:06.802Z,98.700000
2022-08-21T00:56:07.742Z,98.600000
2022-08-21T01:01:08.917Z,98.600000
2022-08-21T01:06:09.541Z,98.500000
2022-08-21T01:11:10.558Z,98.400000
2022-08-21T01:16:11.608Z,98.400000
2022-08-21T01:21:12.796Z,98.300000
2022-08-21T01:26:13.489Z,98.300000
2022-08-21T01:31:14.480Z,98.200000
2022-08-21T01:36:15.354Z,98.200000
2022-08-21T01:40:16.296Z,98.200000
2022-08-21T01:45:17.315Z,98.100000
2022-08-21T01:50:18.129Z,98.100000
2022-08-21T01:55:19.067Z,98.000000
2022-08-21T02:00:20.002Z,98.000000
2022-08-21T02:05:21.061Z,98.000000
2022-08-21T02:10:22.089Z,97.900000
2022-08-21T02:15:22.969Z,97.900000
2022-08-21T02:20:23.965Z,97.800000
2022-08-21T02:25:25.023Z,97.800000
2022-08-21T02:30:25.968Z,97.700000
2022-08-21T02:35:26.788Z,97.700000
2022-08-21T02:40:27.837Z,97.700000
2022-08-21T02:45:28.715Z,97.700000
2022-08-21T02:50:29.746Z,97.600000
2022-08-21T02:55:30.804Z,97.600000
2022-08-21T03:00:31.780Z,97.600000
2022-08-21T03:05:32.846Z,97.500000
2022-08-21T03:10:33.768Z,97.400000
2022-08-21T03:15:34.811Z,97.400000
2022-08-21T03:20:35.867Z,97.400000
2022-08-21T03:25:39.881Z,97.500000
2022-08-21T03:30:37.898Z,97.500000
2022-08-21T03:35:38.854Z,97.500000
2022-08-21T03:40:39.905Z,97.400000
2022-08-21T03:45:40.851Z,97.400000
2022-08-21T03:50:41.831Z,97.300000
2022-08-21T03:55:42.862Z,97.400000
2022-08-21T04:00:43.758Z,97.300000
2022-08-21T04:05:44.733Z,97.300000
2022-08-21T04:10:45.729Z,97.200000
2022-08-21T04:15:46.625Z,97.200000
2022-08-21T04:20:49.948Z,97.100000
2022-08-21T04:25:48.559Z,97.100000
2022-08-21T04:30:49.569Z,97.100000
2022-08-21T04:35:50.687Z,97.100000
2022-08-21T04:40:51.663Z,97.100000
2022-08-21T04:45:52.634Z,97.200000
2022-08-21T04:50:53.774Z,97.100000
2022-08-21T04:55:54.802Z,97.200000
2022-08-21T05:00:55.888Z,97.200000
2022-08-21T05:05:56.859Z,97.100000
2022-08-21T05:11:00.483Z,97.200000
2022-08-21T05:15:58.715Z,97.100000
2022-08-21T05:20:59.757Z,97.100000
2022-08-21T05:26:00.732Z,97.100000
2022-08-21T05:31:01.663Z,97.000000
2022-08-21T05:36:02.615Z,97.083333
2022-08-21T05:41:03.758Z,97.266667
2022-08-21T05:46:04.651Z,97.400000
2022-08-21T05:51:05.658Z,97.400000
2022-08-21T05:56:06.574Z,97.500000
2022-08-21T06:01:07.616Z,97.600000
2022-08-21T06:06:08.553Z,97.500000
2022-08-21T06:11:09.576Z,97.400000
2022-08-21T06:16:10.606Z,97.400000
2022-08-21T06:21:11.555Z,97.300000
2022-08-21T06:26:12.491Z,97.300000
2022-08-21T06:31:13.408Z,97.400000
2022-08-21T06:36:14.361Z,97.600000
2022-08-21T06:41:15.282Z,97.700000
2022-08-21T06:45:16.253Z,97.500000
2022-08-21T06:50:17.134Z,97.500000
2022-08-21T06:55:21.791Z,97.500000
2022-08-21T07:00:18.991Z,97.600000
2022-08-21T07:05:19.944Z,97.500000
2022-08-21T07:10:22.196Z,97.200000
2022-08-21T07:15:21.849Z,97.400000
2022-08-21T07:20:22.823Z,97.300000
2022-08-21T07:25:23.758Z,97.000000
2022-08-21T07:30:24.700Z,97.100000
2022-08-21T07:35:25.694Z,97.100000
2022-08-21T07:40:26.706Z,96.800000
2022-08-21T07:45:27.665Z,96.500000
2022-08-21T07:50:28.715Z,96.300000
2022-08-21T07:55:29.530Z,96.500000
2022-08-21T08:00:30.631Z,96.100000
2022-08-21T08:05:31.486Z,95.700000
2022-08-21T08:10:32.549Z,95.200000
2022-08-21T08:15:37.479Z,94.900000
2022-08-21T08:20:34.626Z,94.500000
2022-08-21T08:25:36.487Z,93.900000
2022-08-21T08:30:36.835Z,93.600000
2022-08-21T08:35:39.148Z,93.500000
2022-08-21T08:40:38.812Z,93.600000
2022-08-21T08:45:39.769Z,93.400000
2022-08-21T08:50:40.808Z,92.400000
2022-08-21T08:55:41.713Z,91.700000
2022-08-21T09:00:42.909Z,92.500000
2022-08-21T09:05:43.713Z,90.900000
2022-08-21T09:10:44.715Z,90.100000
2022-08-21T09:15:45.729Z,89.300000
2022-08-21T09:20:46.688Z,89.100000
2022-08-21T09:25:47.642Z,88.700000
2022-08-21T09:30:48.579Z,88.000000
2022-08-21T09:35:49.391Z,85.300000
2022-08-21T09:40:50.423Z,86.900000
2022-08-21T09:45:51.352Z,83.000000
2022-08-21T09:50:52.360Z,83.100000
2022-08-21T09:55:53.335Z,82.700000
2022-08-21T10:00:54.402Z,81.600000
2022-08-21T10:05:55.278Z,83.700000
2022-08-21T10:10:56.312Z,82.400000
2022-08-21T10:15:57.201Z,84.000000
2022-08-21T10:20:58.182Z,84.600000
2022-08-21T10:26:14.054Z,82.200000
2022-08-21T10:31:00.202Z,81.300000
2022-08-21T10:36:01.044Z,81.500000
2022-08-21T10:41:02.038Z,78.400000
2022-08-21T10:46:03.092Z,79.233333
2022-08-21T10:51:03.929Z,78.600000
2022-08-21T10:56:05.069Z,77.900000
2022-08-21T11:01:06.167Z,79.900000
2022-08-21T11:06:07.125Z,78.100000
2022-08-21T11:11:08.797Z,74.500000
2022-08-21T11:21:10.036Z,77.100000
2022-08-21T11:26:11.039Z,75.900000
2022-08-21T11:31:12.140Z,77.100000
2022-08-21T11:36:13.137Z,74.500000
2022-08-21T11:41:13.993Z,75.200000
2022-08-21T11:46:15.052Z,75.600000
2022-08-21T11:50:29.887Z,75.400000
2022-08-21T11:55:16.991Z,75.400000
2022-08-21T12:00:17.818Z,76.500000
2022-08-21T12:05:18.766Z,75.300000
2022-08-21T12:10:19.755Z,74.000000
2022-08-21T12:15:20.683Z,73.000000
2022-08-21T12:20:21.680Z,75.000000
2022-08-21T12:25:22.628Z,74.100000
2022-08-21T12:30:27.293Z,74.400000
2022-08-21T12:35:25.381Z,73.400000
2022-08-21T12:40:25.851Z,73.500000
2022-08-21T12:45:26.808Z,74.400000
2022-08-21T12:50:27.863Z,74.100000
2022-08-21T12:55:28.681Z,74.500000
2022-08-21T13:00:29.678Z,74.500000
2022-08-21T13:05:30.679Z,75.200000
2022-08-21T13:10:31.581Z,74.100000
2022-08-21T13:15:33.393Z,74.800000
2022-08-21T13:20:33.527Z,74.400000
2022-08-21T13:25:34.466Z,74.400000
2022-08-21T13:30:35.521Z,74.400000
2022-08-21T13:40:37.466Z,74.300000
2022-08-21T13:45:38.350Z,74.300000
2022-08-21T13:50:39.313Z,74.200000
2022-08-21T13:55:40.396Z,73.400000
2022-08-21T14:00:41.398Z,73.500000
2022-08-21T14:05:42.388Z,74.000000
2022-08-21T14:10:43.312Z,74.200000
2022-08-21T14:15:44.241Z,74.400000
2022-08-21T14:20:45.234Z,74.600000
2022-08-21T14:25:46.240Z,74.800000
2022-08-21T14:30:47.212Z,75.100000
2022-08-21T14:35:48.105Z,75.300000
2022-08-21T14:40:49.099Z,75.900000
2022-08-21T14:45:50.102Z,75.700000
2022-08-21T14:55:52.192Z,76.700000
2022-08-21T15:00:53.209Z,76.700000
2022-08-21T15:05:54.257Z,77.800000
2022-08-21T15:11:11.027Z,77.400000
2022-08-21T15:15:56.247Z,77.300000
2022-08-21T15:20:57.314Z,77.700000
2022-08-21T15:25:58.214Z,78.000000
2022-08-21T15:30:59.152Z,78.100000
2022-08-21T15:36:00.256Z,77.900000
2022-08-21T15:41:01.302Z,78.900000
2022-08-21T15:46:02.361Z,79.400000
2022-08-21T15:51:03.341Z,79.066667
2022-08-21T15:56:04.303Z,79.000000
2022-08-21T16:01:05.408Z,79.800000
2022-08-21T16:06:06.331Z,80.100000
2022-08-21T16:11:07.267Z,79.000000
2022-08-21T16:16:08.299Z,79.500000
2022-08-21T16:21:09.290Z,79.100000
2022-08-21T16:26:10.308Z,80.100000
2022-08-21T16:31:11.412Z,79.200000
2022-08-21T16:36:12.249Z,80.200000
2022-08-21T16:41:13.261Z,79.300000
2022-08-21T16:46:14.282Z,79.200000
2022-08-21T16:51:15.248Z,78.600000
2022-08-21T16:55:16.296Z,79.100000
2022-08-21T17:00:17.343Z,79.300000
2022-08-21T17:05:18.267Z,79.100000
2022-08-21T17:10:19.306Z,79.900000
2022-08-21T17:15:21.280Z,78.800000
2022-08-21T17:20:21.385Z,79.900000
2022-08-21T17:25:22.411Z,79.700000
2022-08-21T17:30:26.859Z,80.300000
2022-08-21T17:35:27.813Z,80.700000
2022-08-21T17:40:28.704Z,80.400000
2022-08-21T17:45:29.722Z,80.600000
2022-08-21T17:50:30.721Z,81.500000
2022-08-21T17:55:31.704Z,81.600000
2022-08-21T18:00:32.669Z,81.900000
2022-08-21T18:05:33.684Z,82.200000
2022-08-21T18:10:34.652Z,82.500000
2022-08-21T18:15:35.670Z,82.700000
2022-08-21T18:20:36.742Z,82.700000
2022-08-21T18:25:37.819Z,82.700000
2022-08-21T18:30:38.806Z,82.800000
2022-08-21T18:35:39.741Z,82.800000
2022-08-21T18:40:40.726Z,82.900000
2022-08-21T18:45:41.712Z,83.400000
2022-08-21T18:50:42.727Z,83.300000
2022-08-21T18:55:43.533Z,83.600000
2022-08-21T19:00:44.598Z,83.800000
2022-08-21T19:05:45.450Z,84.300000
2022-08-21T19:10:46.389Z,84.600000
2022-08-21T19:15:47.320Z,84.800000
2022-08-21T19:20:48.202Z,85.600000
2022-08-21T19:25:51.846Z,86.000000
2022-08-21T19:30:50.254Z,86.000000
2022-08-21T19:35:52.609Z,86.500000
2022-08-21T19:40:52.360Z,86.700000
2022-08-21T19:45:53.248Z,87.200000
2022-08-21T19:50:54.234Z,87.500000
2022-08-21T19:55:55.128Z,87.700000
2022-08-21T20:00:56.230Z,88.000000
2022-08-21T20:05:57.069Z,88.200000
2022-08-21T20:10:58.068Z,88.500000
2022-08-21T20:15:58.905Z,88.800000
2022-08-21T20:20:59.773Z,88.700000
2022-08-21T20:26:00.828Z,89.000000
2022-08-21T20:31:01.772Z,89.100000
2022-08-21T20:36:02.844Z,89.100000
2022-08-21T20:46:04.862Z,89.400000
2022-08-21T20:51:05.968Z,89.400000
2022-08-21T20:56:08.033Z,89.400000
2022-08-21T21:01:08.000Z,89.400000
2022-08-21T21:06:08.995Z,89.500000
2022-08-21T21:11:10.364Z,89.500000
2022-08-21T21:17:16.530Z,89.500000
2022-08-21T21:21:12.400Z,89.800000
2022-08-21T21:26:14.506Z,89.800000
2022-08-21T21:31:14.330Z,89.700000
2022-08-21T21:36:15.337Z,89.700000
2022-08-21T21:40:16.297Z,89.700000
2022-08-21T21:45:17.295Z,89.900000
2022-08-21T21:50:19.015Z,89.900000
2022-08-21T21:55:23.694Z,90.000000
2022-08-21T22:00:20.096Z,90.100000
2022-08-21T22:05:22.233Z,90.200000
2022-08-21T22:10:30.677Z,90.200000
2022-08-21T22:16:28.315Z,90.000000
2022-08-21T22:20:24.265Z,90.100000
2022-08-21T22:25:25.268Z,90.400000
2022-08-21T22:30:26.254Z,90.300000
2022-08-21T22:35:27.144Z,90.400000
2022-08-21T22:40:28.143Z,90.700000
2022-08-21T22:45:28.964Z,90.700000
2022-08-21T22:50:29.849Z,90.900000
2022-08-21T22:55:30.852Z,90.700000
2022-08-21T23:00:32.245Z,90.800000
2022-08-21T23:10:34.086Z,91.200000
2022-08-21T23:15:35.043Z,91.200000
2022-08-21T23:20:35.992Z,91.100000
2022-08-21T23:25:36.885Z,91.300000
2022-08-21T23:30:37.859Z,91.300000
2022-08-21T23:35:38.811Z,91.300000
2022-08-21T23:40:51.120Z,91.400000
2022-08-21T23:45:40.749Z,91.500000
2022-08-21T23:50:41.772Z,91.600000
2022-08-21T23:55:42.830Z,91.500000
